createdAt,value
2023-09-14T00:01:30.270Z,3.33
2023-09-14T00:03:53.797Z,3.42
2023-09-14T00:06:17.099Z,3.50
2023-09-14T00:08:41.684Z,3.20
2023-09-14T00:11:05.937Z,3.60
2023-09-14T00:13:29.275Z,3.60
2023-09-14T00:15:52.930Z,3.47
2023-09-14T00:18:16.562Z,3.58
2023-09-14T00:20:39.801Z,3.72
2023-09-14T00:23:04.814Z,3.03
2023-09-14T00:25:29.517Z,3.58
2023-09-14T00:27:54.762Z,3.10
2023-09-14T00:30:18.045Z,3.45
2023-09-14T00:32:41.956Z,3.05
2023-09-14T00:35:06.545Z,3.30
2023-09-14T00:37:29.799Z,2.88
2023-09-14T00:39:53.637Z,3.05
2023-09-14T00:42:18.231Z,3.25
2023-09-14T00:44:41.436Z,3.35
2023-09-14T00:47:29.646Z,3.15
2023-09-14T00:49:52.909Z,3.13
2023-09-14T00:52:16.702Z,3.30
2023-09-14T00:54:40.738Z,3.53
2023-09-14T00:57:04.156Z,3.20
2023-09-14T00:59:28.758Z,3.30
2023-09-14T01:01:52.067Z,3.10
2023-09-14T01:04:15.811Z,3.30
2023-09-14T01:06:39.671Z,3.20
2023-09-14T01:09:28.252Z,3.08
2023-09-14T01:11:53.028Z,3.53
2023-09-14T01:14:29.629Z,3.38
2023-09-14T01:17:00.471Z,3.33
2023-09-14T01:19:42.162Z,3.20
2023-09-14T01:22:30.027Z,4.13
2023-09-14T01:25:00.533Z,3.15
2023-09-14T01:27:26.303Z,2.78
2023-09-14T01:29:49.528Z,2.92
2023-09-14T01:32:12.841Z,3.53
2023-09-14T01:34:36.301Z,3.17
2023-09-14T01:37:02.234Z,3.53
2023-09-14T01:39:26.758Z,3.53
2023-09-14T01:41:55.853Z,3.42
2023-09-14T01:44:21.358Z,3.00
2023-09-14T01:46:46.445Z,3.28
2023-09-14T01:49:09.804Z,3.72
2023-09-14T01:51:33.418Z,3.42
2023-09-14T01:53:57.080Z,4.35
2023-09-14T01:56:19.857Z,3.60
2023-09-14T01:58:43.617Z,3.63
2023-09-14T02:01:09.292Z,3.45
2023-09-14T02:03:32.967Z,3.75
2023-09-14T02:05:59.836Z,3.90
2023-09-14T02:08:23.294Z,3.75
2023-09-14T02:10:49.971Z,3.70
2023-09-14T02:13:13.258Z,3.70
2023-09-14T02:15:36.467Z,3.50
2023-09-14T02:18:02.346Z,3.08
2023-09-14T02:20:25.643Z,2.97
2023-09-14T02:22:48.792Z,2.88
2023-09-14T02:25:12.092Z,4.05
2023-09-14T02:27:36.220Z,4.03
2023-09-14T02:29:59.761Z,3.50
2023-09-14T02:32:23.681Z,3.50
2023-09-14T02:34:49.153Z,3.78
2023-09-14T02:37:12.501Z,3.97
2023-09-14T02:39:36.322Z,3.78
2023-09-14T02:41:59.514Z,3.90
2023-09-14T02:44:22.902Z,3.67
2023-09-14T02:46:46.234Z,3.38
2023-09-14T02:49:09.601Z,3.92
2023-09-14T02:51:34.189Z,3.67
2023-09-14T02:53:57.399Z,3.60
2023-09-14T02:56:20.672Z,3.40
2023-09-14T02:58:44.642Z,3.78
2023-09-14T03:01:10.056Z,3.60
2023-09-14T03:03:34.867Z,3.55
2023-09-14T03:05:59.050Z,4.18
2023-09-14T03:08:23.631Z,3.90
2023-09-14T03:10:46.794Z,3.65
2023-09-14T03:13:10.367Z,4.40
2023-09-14T03:15:35.835Z,3.85
2023-09-14T03:17:59.635Z,4.70
2023-09-14T03:20:23.154Z,3.80
2023-09-14T03:22:46.337Z,4.43
2023-09-14T03:25:11.614Z,3.75
2023-09-14T03:27:34.833Z,4.93
2023-09-14T03:29:59.111Z,4.05
2023-09-14T03:32:22.351Z,5.32
2023-09-14T03:34:46.225Z,5.32
2023-09-14T03:37:09.503Z,5.88
2023-09-14T03:39:33.875Z,5.15
2023-09-14T03:41:58.955Z,5.35
2023-09-14T03:44:22.229Z,4.97
2023-09-14T03:46:45.547Z,5.07
2023-09-14T03:49:09.117Z,5.50
2023-09-14T03:51:32.352Z,4.82
2023-09-14T03:53:55.606Z,5.32
2023-09-14T03:56:18.861Z,5.03
2023-09-14T03:58:44.255Z,5.30
2023-09-14T04:01:08.005Z,5.82
2023-09-14T04:03:31.754Z,4.50
2023-09-14T04:05:55.052Z,4.72
2023-09-14T04:08:19.523Z,5.10
2023-09-14T04:10:43.039Z,4.93
2023-09-14T04:13:27.326Z,5.03
2023-09-14T04:15:52.240Z,5.68
2023-09-14T04:18:15.448Z,4.65
2023-09-14T04:20:38.743Z,4.97
2023-09-14T04:23:01.952Z,4.07
2023-09-14T04:25:25.254Z,4.78
2023-09-14T04:27:50.116Z,4.18
2023-09-14T04:30:15.480Z,5.00
2023-09-14T04:32:40.066Z,4.30
2023-09-14T04:35:04.627Z,4.95
2023-09-14T04:37:28.122Z,4.80
2023-09-14T04:39:51.352Z,4.80
2023-09-14T04:42:15.335Z,4.72
2023-09-14T04:44:38.563Z,4.78
2023-09-14T04:47:01.817Z,4.43
2023-09-14T04:49:26.530Z,5.10
2023-09-14T04:51:50.462Z,4.45
2023-09-14T04:54:14.069Z,4.03
2023-09-14T04:56:37.896Z,4.03
2023-09-14T04:59:01.371Z,4.75
2023-09-14T05:01:24.759Z,4.35
2023-09-14T05:03:48.499Z,4.30
2023-09-14T05:06:13.394Z,5.05
2023-09-14T05:08:36.627Z,4.70
2023-09-14T05:11:01.217Z,5.30
2023-09-14T05:13:26.149Z,5.10
2023-09-14T05:15:50.512Z,5.03
2023-09-14T05:18:17.505Z,5.43
2023-09-14T05:20:45.058Z,5.82
2023-09-14T05:23:09.723Z,5.40
2023-09-14T05:25:33.047Z,5.85
2023-09-14T05:27:56.381Z,5.85
2023-09-14T05:30:22.730Z,5.40
2023-09-14T05:32:46.248Z,6.55
2023-09-14T05:35:11.694Z,6.38
2023-09-14T05:37:35.082Z,7.65
2023-09-14T05:39:59.910Z,5.70
2023-09-14T05:42:24.538Z,6.47
2023-09-14T05:44:49.115Z,6.05
2023-09-14T05:47:12.588Z,5.93
2023-09-14T05:49:35.894Z,6.82
2023-09-14T05:51:59.984Z,6.88
2023-09-14T05:54:24.227Z,5.85
2023-09-14T05:56:49.183Z,6.50
2023-09-14T05:59:25.722Z,6.30
2023-09-14T06:01:55.206Z,6.35
2023-09-14T06:04:19.641Z,5.85
2023-09-14T06:06:43.484Z,6.82
2023-09-14T06:09:06.999Z,5.80
2023-09-14T06:11:30.674Z,6.55
2023-09-14T06:13:55.307Z,5.75
2023-09-14T06:16:18.574Z,6.78
2023-09-14T06:18:41.873Z,6.93
2023-09-14T06:21:05.287Z,6.35
2023-09-14T06:23:28.998Z,6.80
2023-09-14T06:25:53.905Z,7.15
2023-09-14T06:28:17.308Z,6.57
2023-09-14T06:30:41.910Z,9.15
2023-09-14T06:33:06.811Z,8.05
2023-09-14T06:35:30.301Z,7.75
2023-09-14T06:37:53.496Z,8.52
2023-09-14T06:40:17.447Z,9.00
2023-09-14T06:42:40.758Z,8.73
2023-09-14T06:45:04.520Z,8.50
2023-09-14T06:47:29.302Z,8.63
2023-09-14T06:49:52.480Z,8.05
2023-09-14T06:52:16.124Z,8.80
2023-09-14T06:54:40.262Z,8.25
2023-09-14T06:57:04.675Z,7.30
2023-09-14T06:59:30.086Z,7.57
2023-09-14T07:01:53.399Z,8.13
2023-09-14T07:04:18.187Z,8.65
2023-09-14T07:06:41.817Z,7.95
2023-09-14T07:09:07.647Z,7.60
2023-09-14T07:11:31.063Z,8.63
2023-09-14T07:13:54.309Z,8.30
2023-09-14T07:16:17.650Z,9.05
2023-09-14T07:18:41.195Z,8.18
2023-09-14T07:21:06.355Z,9.00
2023-09-14T07:23:30.353Z,9.23
2023-09-14T07:25:53.720Z,9.50
2023-09-14T07:28:17.734Z,8.82
2023-09-14T07:30:41.111Z,9.55
2023-09-14T07:33:05.145Z,9.25
2023-09-14T07:35:28.505Z,8.20
2023-09-14T07:37:53.587Z,8.55
2023-09-14T07:40:17.773Z,8.90
2023-09-14T07:42:41.216Z,9.75
2023-09-14T07:45:04.912Z,10.02
2023-09-14T07:47:30.851Z,9.95
2023-09-14T07:49:54.505Z,8.80
2023-09-14T07:52:17.924Z,9.23
2023-09-14T07:54:42.537Z,8.50
2023-09-14T07:57:06.364Z,8.98
2023-09-14T07:59:30.804Z,9.40
2023-09-14T08:01:53.937Z,9.40
2023-09-14T08:04:17.826Z,8.38
2023-09-14T08:06:41.100Z,8.50
2023-09-14T08:09:05.092Z,8.52
2023-09-14T08:11:29.784Z,8.00
2023-09-14T08:13:53.493Z,8.68
2023-09-14T08:16:16.838Z,8.57
2023-09-14T08:18:42.669Z,9.10
2023-09-14T08:21:05.996Z,7.97
2023-09-14T08:23:30.348Z,7.65
2023-09-14T08:25:53.574Z,8.65
2023-09-14T08:28:19.957Z,7.80
2023-09-14T08:30:43.757Z,8.85
2023-09-14T08:33:07.443Z,8.43
2023-09-14T08:35:32.648Z,7.63
2023-09-14T08:37:56.359Z,7.70
2023-09-14T08:40:20.429Z,8.45
2023-09-14T08:42:45.516Z,7.18
2023-09-14T08:45:14.716Z,7.53
2023-09-14T08:47:39.179Z,7.30
2023-09-14T08:50:04.360Z,7.88
2023-09-14T08:52:27.832Z,8.35
2023-09-14T08:54:51.642Z,7.82
2023-09-14T08:57:15.044Z,6.65
2023-09-14T08:59:39.561Z,6.18
2023-09-14T09:02:05.783Z,6.03
2023-09-14T09:04:29.134Z,4.60
2023-09-14T09:06:53.645Z,5.22
2023-09-14T09:09:20.150Z,6.50
2023-09-14T09:11:43.706Z,6.13
2023-09-14T09:14:07.012Z,6.00
2023-09-14T09:16:30.305Z,7.18
2023-09-14T09:19:08.492Z,5.72
2023-09-14T09:21:35.165Z,4.70
2023-09-14T09:23:58.611Z,6.05
2023-09-14T09:26:22.337Z,5.28
2023-09-14T09:28:49.393Z,5.30
2023-09-14T09:31:12.721Z,5.68
2023-09-14T09:33:37.590Z,5.13
2023-09-14T09:36:02.615Z,5.32
2023-09-14T09:38:28.824Z,5.38
2023-09-14T09:40:52.309Z,4.65
2023-09-14T09:43:19.738Z,5.38
2023-09-14T09:45:43.187Z,5.50
2023-09-14T09:48:08.460Z,4.32
2023-09-14T09:50:32.589Z,4.57
2023-09-14T09:52:57.361Z,4.53
2023-09-14T09:55:29.673Z,4.20
2023-09-14T09:57:54.652Z,3.35
2023-09-14T10:00:20.795Z,3.72
2023-09-14T10:02:44.222Z,3.70
2023-09-14T10:05:08.861Z,3.30
2023-09-14T10:07:37.804Z,3.60
2023-09-14T10:10:02.687Z,4.28
2023-09-14T10:12:29.246Z,3.65
2023-09-14T10:14:53.763Z,3.45
2023-09-14T10:17:24.477Z,3.72
2023-09-14T10:19:49.033Z,2.83
2023-09-14T10:22:13.098Z,2.60
2023-09-14T10:24:38.159Z,2.35
2023-09-14T10:27:03.718Z,2.70
2023-09-14T10:29:28.910Z,2.70
2023-09-14T10:31:55.419Z,2.50
2023-09-14T10:34:19.837Z,2.83
2023-09-14T10:36:44.843Z,3.35
2023-09-14T10:39:08.535Z,3.22
2023-09-14T10:41:31.819Z,3.25
2023-09-14T10:43:57.198Z,3.17
2023-09-14T10:46:24.981Z,3.10
2023-09-14T10:48:48.995Z,5.43
2023-09-14T10:51:14.240Z,4.40
2023-09-14T10:53:38.106Z,5.15
2023-09-14T10:56:01.441Z,3.97
2023-09-14T10:58:25.770Z,3.20
2023-09-14T11:01:17.446Z,3.60
2023-09-14T11:04:13.315Z,3.83
2023-09-14T11:06:46.007Z,4.40
2023-09-14T11:09:09.716Z,5.15
2023-09-14T11:11:41.261Z,4.80
2023-09-14T11:14:10.429Z,5.43
2023-09-14T11:16:45.682Z,7.60
2023-09-14T11:19:09.820Z,7.80
2023-09-14T11:21:48.868Z,7.20
2023-09-14T11:24:14.626Z,6.05
2023-09-14T11:26:46.095Z,5.00
2023-09-14T11:29:12.694Z,6.25
2023-09-14T11:31:58.813Z,6.25
2023-09-14T11:34:29.060Z,6.68
2023-09-14T11:36:57.632Z,7.50
2023-09-14T11:39:25.330Z,7.25
2023-09-14T11:42:04.819Z,6.60
2023-09-14T11:44:52.277Z,7.25
2023-09-14T11:47:21.077Z,6.70
2023-09-14T11:49:48.624Z,7.82
2023-09-14T11:52:14.453Z,8.60
2023-09-14T11:54:37.729Z,8.85
2023-09-14T11:57:01.553Z,8.02
2023-09-14T11:59:32.238Z,8.05
2023-09-14T12:01:55.704Z,8.15
2023-09-14T12:04:19.013Z,7.57
2023-09-14T12:06:43.690Z,8.60
2023-09-14T12:09:16.244Z,7.80
2023-09-14T12:11:48.567Z,9.15
2023-09-14T12:14:11.823Z,8.90
2023-09-14T12:16:35.171Z,8.13
2023-09-14T12:18:58.569Z,8.55
2023-09-14T12:21:25.235Z,7.78
2023-09-14T12:23:53.107Z,7.50
2023-09-14T12:26:18.327Z,7.43
2023-09-14T12:28:42.543Z,7.03
2023-09-14T12:31:05.970Z,8.00
2023-09-14T12:33:30.200Z,8.88
2023-09-14T12:35:53.880Z,8.25
2023-09-14T12:38:18.015Z,7.95
2023-09-14T12:40:42.689Z,7.05
2023-09-14T12:43:08.253Z,7.22
2023-09-14T12:45:33.931Z,6.78
2023-09-14T12:47:57.194Z,6.43
2023-09-14T12:50:21.338Z,7.55
2023-09-14T12:52:45.710Z,7.38
2023-09-14T12:55:16.079Z,7.00
2023-09-14T12:57:40.731Z,5.82
2023-09-14T13:00:13.028Z,5.50
2023-09-14T13:02:37.017Z,6.35
2023-09-14T13:05:00.343Z,5.57
2023-09-14T13:07:24.093Z,5.75
2023-09-14T13:09:47.278Z,6.65
2023-09-14T13:12:10.537Z,6.53
2023-09-14T13:14:35.881Z,7.25
2023-09-14T13:16:59.764Z,7.57
2023-09-14T13:19:26.369Z,7.47
2023-09-14T13:21:51.024Z,8.02
2023-09-14T13:24:14.390Z,7.35
2023-09-14T13:26:37.597Z,7.75
2023-09-14T13:29:00.823Z,8.20
2023-09-14T13:31:25.527Z,7.78
2023-09-14T13:33:48.813Z,7.68
2023-09-14T13:36:12.682Z,7.13
2023-09-14T13:38:36.033Z,7.35
2023-09-14T13:40:59.291Z,6.40
2023-09-14T13:43:22.500Z,6.72
2023-09-14T13:45:45.778Z,6.07
2023-09-14T13:48:10.719Z,5.70
2023-09-14T13:50:34.047Z,6.25
2023-09-14T13:52:57.237Z,5.88
2023-09-14T13:55:20.838Z,6.13
2023-09-14T13:57:44.977Z,4.80
2023-09-14T14:00:12.515Z,5.80
2023-09-14T14:02:35.774Z,5.00
2023-09-14T14:05:00.881Z,4.75
2023-09-14T14:07:24.103Z,5.65
2023-09-14T14:09:47.967Z,5.50
2023-09-14T14:12:12.091Z,5.53
2023-09-14T14:14:37.993Z,5.65
2023-09-14T14:17:01.758Z,5.47
2023-09-14T14:19:25.013Z,6.90
2023-09-14T14:21:49.872Z,7.78
2023-09-14T14:24:13.204Z,7.82
2023-09-14T14:26:36.455Z,7.65
2023-09-14T14:28:59.700Z,6.90
2023-09-14T14:31:22.962Z,6.85
2023-09-14T14:33:46.449Z,6.53
2023-09-14T14:36:09.638Z,5.43
2023-09-14T14:38:34.241Z,5.65
2023-09-14T14:43:23.579Z,5.90
2023-09-14T14:45:46.804Z,5.82
2023-09-14T14:48:10.371Z,6.25
2023-09-14T14:50:33.985Z,5.22
2023-09-14T14:52:57.318Z,5.78
2023-09-14T14:55:23.031Z,6.28
2023-09-14T14:57:46.534Z,6.72
2023-09-14T15:00:11.045Z,6.10
2023-09-14T15:02:34.348Z,6.00
2023-09-14T15:04:57.713Z,5.88
2023-09-14T15:07:21.026Z,6.10
2023-09-14T15:09:44.212Z,6.18
2023-09-14T15:12:09.341Z,5.93
2023-09-14T15:14:32.640Z,6.18
2023-09-14T15:16:56.296Z,5.90
2023-09-14T15:19:19.906Z,5.20
2023-09-14T15:21:43.164Z,5.72
2023-09-14T15:24:06.918Z,6.60
2023-09-14T15:26:30.213Z,5.55
2023-09-14T15:28:56.179Z,5.80
2023-09-14T15:31:20.703Z,5.32
2023-09-14T15:33:44.274Z,5.93
2023-09-14T15:36:08.747Z,5.72
2023-09-14T15:38:32.149Z,5.82
2023-09-14T15:40:56.152Z,5.60
2023-09-14T15:43:19.327Z,5.68
2023-09-14T15:45:44.790Z,5.30
2023-09-14T15:48:11.182Z,5.88
2023-09-14T15:50:34.339Z,5.55
2023-09-14T15:52:57.812Z,6.03
2023-09-14T15:55:31.154Z,6.00
2023-09-14T15:57:55.857Z,5.40
2023-09-14T16:00:19.957Z,5.40
2023-09-14T16:02:44.533Z,6.43
2023-09-14T16:05:09.468Z,6.07
2023-09-14T16:07:33.248Z,5.22
2023-09-14T16:09:57.581Z,6.68
2023-09-14T16:12:20.716Z,6.55
2023-09-14T16:14:43.791Z,5.70
2023-09-14T16:17:07.366Z,9.73
2023-09-14T16:19:32.165Z,12.77
2023-09-14T16:21:55.423Z,8.80
2023-09-14T16:24:20.366Z,6.22
2023-09-14T16:26:43.581Z,6.50
2023-09-14T16:29:06.972Z,5.55
2023-09-14T16:31:30.201Z,6.15
2023-09-14T16:33:54.481Z,6.22
2023-09-14T16:36:19.096Z,6.07
2023-09-14T16:38:44.471Z,5.25
2023-09-14T16:41:09.475Z,5.97
2023-09-14T16:43:32.742Z,5.40
2023-09-14T16:45:56.178Z,5.97
2023-09-14T16:48:19.787Z,9.10
2023-09-14T16:50:43.012Z,11.40
2023-09-14T16:53:09.191Z,11.38
2023-09-14T16:55:32.445Z,10.75
2023-09-14T16:57:56.489Z,6.32
2023-09-14T17:00:19.795Z,6.93
2023-09-14T17:02:43.317Z,6.05
2023-09-14T17:05:10.272Z,5.13
2023-09-14T17:07:37.457Z,6.13
2023-09-14T17:10:03.453Z,5.53
2023-09-14T17:12:26.987Z,5.78
2023-09-14T17:14:50.673Z,5.63
2023-09-14T17:17:15.098Z,6.82
2023-09-14T17:19:38.558Z,5.82
2023-09-14T17:22:02.450Z,5.70
2023-09-14T17:24:25.859Z,5.97
2023-09-14T17:26:50.504Z,6.10
2023-09-14T17:29:14.221Z,6.05
2023-09-14T17:31:37.748Z,6.25
2023-09-14T17:34:01.624Z,6.53
2023-09-14T17:36:24.927Z,6.30
2023-09-14T17:38:48.914Z,6.70
2023-09-14T17:41:12.230Z,6.63
2023-09-14T17:43:38.352Z,6.30
2023-09-14T17:46:02.592Z,6.50
2023-09-14T17:48:26.450Z,6.43
2023-09-14T17:50:53.573Z,6.55
2023-09-14T17:53:16.739Z,6.35
2023-09-14T17:55:40.101Z,6.05
2023-09-14T17:58:03.474Z,6.38
2023-09-14T18:00:28.512Z,6.55
2023-09-14T18:02:51.713Z,6.38
2023-09-14T18:05:15.685Z,6.20
2023-09-14T18:07:38.881Z,6.65
2023-09-14T18:10:02.548Z,6.53
2023-09-14T18:12:25.771Z,6.68
2023-09-14T18:14:49.144Z,6.18
2023-09-14T18:17:13.784Z,6.38
2023-09-14T18:19:37.873Z,6.60
2023-09-14T18:22:01.221Z,6.28
2023-09-14T18:24:24.426Z,6.68
2023-09-14T18:26:48.047Z,6.57
2023-09-14T18:29:14.045Z,7.13
2023-09-14T18:31:37.399Z,6.20
2023-09-14T18:34:02.649Z,6.55
2023-09-14T18:36:26.306Z,6.47
2023-09-14T18:38:50.017Z,6.97
2023-09-14T18:41:15.336Z,6.68
2023-09-14T18:43:39.401Z,6.35
2023-09-14T18:46:02.784Z,6.43
2023-09-14T18:48:26.166Z,7.47
2023-09-14T18:50:51.990Z,6.65
2023-09-14T18:53:15.591Z,7.15
2023-09-14T18:55:39.045Z,7.40
2023-09-14T18:58:02.426Z,7.35
2023-09-14T19:00:25.887Z,7.35
2023-09-14T19:02:49.168Z,6.43
2023-09-14T19:05:13.219Z,7.47
2023-09-14T19:07:38.254Z,6.95
2023-09-14T19:10:02.201Z,6.50
2023-09-14T19:12:25.383Z,6.97
2023-09-14T19:14:49.643Z,6.50
2023-09-14T19:17:13.261Z,7.40
2023-09-14T19:19:36.460Z,6.50
2023-09-14T19:22:00.822Z,6.90
2023-09-14T19:24:25.355Z,6.10
2023-09-14T19:26:49.401Z,6.03
2023-09-14T19:29:12.604Z,6.22
2023-09-14T19:31:35.819Z,6.07
2023-09-14T19:33:59.086Z,5.57
2023-09-14T19:36:24.454Z,6.68
2023-09-14T19:38:48.445Z,6.50
2023-09-14T19:41:13.815Z,5.68
2023-09-14T19:43:37.101Z,5.70
2023-09-14T19:46:00.649Z,5.65
2023-09-14T19:48:23.974Z,5.70
2023-09-14T19:50:51.821Z,5.60
2023-09-14T19:53:19.070Z,5.88
2023-09-14T19:55:47.403Z,6.05
2023-09-14T19:58:11.931Z,5.75
2023-09-14T20:00:35.225Z,5.80
2023-09-14T20:02:58.627Z,5.53
2023-09-14T20:05:24.117Z,5.65
2023-09-14T20:07:48.060Z,6.10
2023-09-14T20:10:11.770Z,5.53
2023-09-14T20:12:35.954Z,5.35
2023-09-14T20:15:00.861Z,5.97
2023-09-14T20:17:24.226Z,6.00
2023-09-14T20:19:48.065Z,5.80
2023-09-14T20:22:11.479Z,5.97
2023-09-14T20:24:35.867Z,5.47
2023-09-14T20:27:00.300Z,5.60
2023-09-14T20:29:23.485Z,6.25
2023-09-14T20:31:48.023Z,5.85
2023-09-14T20:34:12.059Z,6.00
2023-09-14T20:36:36.481Z,6.47
2023-09-14T20:39:00.678Z,6.75
2023-09-14T20:41:27.949Z,7.15
2023-09-14T20:43:51.174Z,7.38
2023-09-14T20:46:14.697Z,6.22
2023-09-14T20:48:39.995Z,7.07
2023-09-14T20:51:08.864Z,6.55
2023-09-14T20:53:56.806Z,7.13
2023-09-14T20:56:20.097Z,6.00
2023-09-14T20:58:43.509Z,6.05
2023-09-14T21:01:10.284Z,6.20
2023-09-14T21:03:34.167Z,6.03
2023-09-14T21:06:02.821Z,5.93
2023-09-14T21:08:27.141Z,5.97
2023-09-14T21:10:50.356Z,6.13
2023-09-14T21:13:13.631Z,6.20
2023-09-14T21:15:38.052Z,6.38
2023-09-14T21:18:02.646Z,5.07
2023-09-14T21:20:25.923Z,5.28
2023-09-14T21:22:51.645Z,5.85
2023-09-14T21:25:15.450Z,4.90
2023-09-14T21:27:39.012Z,6.00
2023-09-14T21:30:02.280Z,6.25
2023-09-14T21:32:25.509Z,6.25
2023-09-14T21:34:48.847Z,6.75
2023-09-14T21:37:13.932Z,6.22
2023-09-14T21:39:38.608Z,5.95
2023-09-14T21:42:01.851Z,5.85
2023-09-14T21:44:25.084Z,5.90
2023-09-14T21:46:48.256Z,5.97
2023-09-14T21:49:34.381Z,5.65
2023-09-14T21:51:57.628Z,5.10
2023-09-14T21:54:21.270Z,5.80
2023-09-14T21:56:47.994Z,6.10
2023-09-14T21:59:11.153Z,6.13
2023-09-14T22:01:34.438Z,5.65
2023-09-14T22:03:58.711Z,6.00
2023-09-14T22:06:25.410Z,5.93
2023-09-14T22:08:49.121Z,5.35
2023-09-14T22:11:12.442Z,5.13
2023-09-14T22:13:37.257Z,5.60
2023-09-14T22:16:01.669Z,5.38
2023-09-14T22:18:26.672Z,6.28
2023-09-14T22:20:49.905Z,6.03
2023-09-14T22:23:13.606Z,6.63
2023-09-14T22:25:39.199Z,5.57
2023-09-14T22:28:02.475Z,6.38
2023-09-14T22:30:27.432Z,6.05
2023-09-14T22:32:50.757Z,6.13
2023-09-14T22:35:14.425Z,6.57
2023-09-14T22:37:49.495Z,5.72
2023-09-14T22:40:14.890Z,6.72
2023-09-14T22:42:38.086Z,6.28
2023-09-14T22:45:01.769Z,6.38
2023-09-14T22:47:26.332Z,5.78
2023-09-14T22:49:49.539Z,6.45
2023-09-14T22:52:12.791Z,6.28
2023-09-14T22:54:37.041Z,5.82
2023-09-14T22:57:01.096Z,5.90
2023-09-14T22:59:24.467Z,5.80
2023-09-14T23:01:48.569Z,6.10
2023-09-14T23:04:13.447Z,6.45
2023-09-14T23:06:36.610Z,6.07
2023-09-14T23:08:59.848Z,6.10
2023-09-14T23:11:31.553Z,6.18
2023-09-14T23:13:55.279Z,5.40
2023-09-14T23:16:19.381Z,6.15
2023-09-14T23:18:43.567Z,5.53
2023-09-14T23:21:11.589Z,5.85
2023-09-14T23:23:34.788Z,6.55
2023-09-14T23:25:58.097Z,5.65
2023-09-14T23:28:22.175Z,5.95
2023-09-14T23:30:45.362Z,5.95
2023-09-14T23:33:09.503Z,5.40
2023-09-14T23:35:34.080Z,5.85
2023-09-14T23:37:58.869Z,5.78
2023-09-14T23:40:34.554Z,5.82
2023-09-14T23:43:00.579Z,5.90
2023-09-14T23:45:25.438Z,5.70
2023-09-14T23:47:48.963Z,5.40
2023-09-14T23:50:14.565Z,5.70
2023-09-14T23:52:38.302Z,5.40
2023-09-14T23:55:06.777Z,5.05
2023-09-14T23:57:30.921Z,5.38
2023-09-14T23:59:54.380Z,5.50
